createdAt,value
2019-02-05T00:00:45.795Z,34.10
2019-02-05T00:03:21.228Z,27.23
2019-02-05T01:02:32.336Z,17.03
2019-02-05T01:05:02.905Z,17.33
2019-02-05T01:10:29.049Z,11.80
2019-02-05T01:13:00.317Z,11.97
2019-02-05T01:15:32.941Z,12.50
2019-02-05T01:18:04.937Z,12.03
2019-02-05T01:20:35.456Z,13.50
2019-02-05T01:23:05.929Z,13.97
2019-02-05T01:25:36.572Z,13.57
2019-02-05T01:31:08.087Z,76.20
2019-02-05T01:33:38.190Z,74.07
2019-02-05T01:36:08.559Z,59.57
2019-02-05T02:06:02.411Z,13.43
2019-02-05T02:08:33.299Z,17.00
2019-02-05T03:33:32.186Z,16.57
2019-02-05T03:39:35.624Z,15.87
2019-02-05T03:58:38.652Z,17.53
2019-02-05T04:01:24.951Z,14.50
2019-02-05T04:04:06.833Z,11.23
2019-02-05T04:06:51.920Z,12.93
2019-02-05T04:48:52.109Z,14.87
2019-02-05T05:01:51.802Z,13.07
2019-02-05T05:04:33.536Z,16.93
2019-02-05T05:07:24.526Z,11.93
2019-02-05T05:09:58.683Z,12.10
2019-02-05T05:12:28.969Z,12.23
2019-02-05T05:14:59.281Z,12.50
2019-02-05T05:41:47.307Z,72.93
2019-02-05T05:44:21.438Z,47.03
2019-02-05T05:46:51.842Z,16.83
2019-02-05T05:49:22.680Z,12.40
2019-02-05T05:51:52.710Z,10.63
2019-02-05T05:54:23.996Z,14.53
2019-02-05T05:56:54.137Z,13.33
2019-02-05T05:59:24.241Z,12.20
2019-02-05T06:01:54.333Z,12.70
2019-02-05T06:04:25.134Z,10.40
2019-02-05T06:06:55.150Z,10.23
2019-02-05T06:09:25.229Z,14.77
2019-02-05T06:11:55.322Z,11.40
2019-02-05T06:14:25.452Z,13.33
2019-02-05T06:17:13.755Z,10.63
2019-02-05T06:19:56.063Z,13.43
2019-02-05T06:22:26.163Z,12.87
2019-02-05T06:24:56.193Z,16.67
2019-02-05T06:27:26.280Z,16.90
2019-02-05T06:29:56.322Z,15.33
2019-02-05T06:32:26.413Z,14.03
2019-02-05T06:34:56.531Z,11.87
2019-02-05T06:37:26.637Z,12.73
2019-02-05T06:39:56.630Z,13.73
2019-02-05T06:42:26.751Z,10.47
2019-02-05T06:44:56.841Z,13.80
2019-02-05T06:47:26.949Z,13.43
2019-02-05T06:49:57.030Z,10.77
2019-02-05T06:52:27.049Z,14.80
2019-02-05T06:54:57.175Z,12.23
2019-02-05T06:57:27.300Z,11.53
2019-02-05T06:59:57.227Z,10.40
2019-02-05T07:02:27.441Z,11.37
2019-02-05T07:04:57.462Z,13.50
2019-02-05T07:07:27.490Z,12.50
2019-02-05T07:09:57.677Z,12.30
2019-02-05T07:12:27.701Z,16.13
2019-02-05T07:14:57.791Z,14.90
2019-02-05T07:17:27.821Z,11.90
2019-02-05T07:19:57.931Z,11.33
2019-02-05T07:22:27.951Z,13.47
2019-02-05T07:24:58.037Z,13.97
2019-02-05T07:27:28.056Z,12.33
2019-02-05T07:29:58.139Z,15.60
2019-02-05T07:32:28.171Z,15.33
2019-02-05T07:34:58.240Z,16.63
2019-02-05T07:37:38.979Z,12.27
2019-02-05T07:40:19.132Z,11.63
2019-02-05T07:42:49.654Z,12.80
2019-02-05T07:45:21.839Z,13.27
2019-02-05T07:57:30.844Z,14.17
2019-02-05T08:12:50.124Z,14.33
2019-02-05T08:15:32.116Z,15.40
2019-02-05T08:18:02.595Z,14.80
2019-02-05T08:20:32.892Z,14.13
2019-02-05T08:23:03.182Z,16.00
2019-02-05T08:25:53.245Z,13.63
2019-02-05T08:28:24.094Z,14.30
2019-02-05T08:30:55.215Z,12.93
2019-02-05T08:33:25.454Z,10.93
2019-02-05T08:35:57.868Z,11.27
2019-02-05T08:38:30.288Z,10.80
2019-02-05T08:41:02.097Z,12.40
2019-02-05T08:49:19.865Z,11.10
2019-02-05T08:51:50.454Z,13.57
2019-02-05T08:54:20.645Z,17.43
2019-02-05T08:56:50.855Z,13.18
2019-02-05T08:59:21.171Z,13.18
2019-02-05T09:01:51.257Z,17.07
2019-02-05T09:04:22.682Z,13.75
2019-02-05T09:06:53.535Z,14.20
2019-02-05T09:09:32.597Z,14.83
2019-02-05T09:15:28.886Z,15.70
2019-02-05T09:17:50.485Z,17.62
2019-02-05T09:20:22.376Z,16.73
2019-02-05T09:22:53.703Z,18.23
2019-02-05T09:25:23.933Z,15.28
2019-02-05T09:27:54.120Z,17.05
2019-02-05T09:30:29.719Z,16.82
2019-02-05T09:33:02.405Z,18.65
2019-02-05T09:35:32.736Z,15.43
2019-02-05T09:38:02.926Z,17.10
2019-02-05T09:40:34.334Z,16.73
2019-02-05T09:43:05.157Z,17.05
2019-02-05T09:45:35.888Z,18.95
2019-02-05T09:48:06.078Z,16.55
2019-02-05T09:50:44.201Z,20.85
2019-02-05T09:53:07.844Z,18.82
2019-02-05T09:55:37.938Z,15.45
2019-02-05T09:58:07.956Z,15.25
2019-02-05T10:00:41.253Z,15.60
2019-02-05T10:03:11.349Z,16.70
2019-02-05T10:05:41.432Z,16.07
2019-02-05T10:08:11.490Z,20.35
2019-02-05T10:10:41.507Z,28.25
2019-02-05T10:13:11.703Z,21.10
2019-02-05T10:15:43.445Z,19.73
2019-02-05T10:18:14.531Z,19.45
2019-02-05T10:20:44.717Z,17.60
2019-02-05T10:23:14.736Z,17.07
2019-02-05T10:25:44.837Z,16.05
2019-02-05T10:28:14.852Z,25.85
2019-02-05T10:30:46.060Z,23.12
2019-02-05T10:33:16.342Z,21.73
2019-02-05T10:35:46.739Z,34.00
2019-02-05T10:38:16.858Z,27.95
2019-02-05T10:40:47.965Z,31.93
2019-02-05T10:43:18.079Z,35.45
2019-02-05T10:45:48.664Z,38.33
2019-02-05T10:48:18.756Z,29.67
2019-02-05T10:50:48.965Z,34.23
2019-02-05T10:53:19.031Z,30.23
2019-02-05T10:55:49.140Z,31.00
2019-02-05T10:58:19.239Z,31.97
2019-02-05T11:00:49.781Z,33.15
2019-02-05T11:03:20.063Z,28.50
2019-02-05T11:05:50.075Z,27.75
2019-02-05T11:08:20.216Z,21.27
2019-02-05T11:10:50.247Z,20.88
2019-02-05T11:13:20.358Z,18.50
2019-02-05T11:15:51.069Z,19.75
2019-02-05T11:18:21.161Z,22.75
2019-02-05T11:20:51.196Z,22.17
2019-02-05T11:23:21.281Z,22.70
2019-02-05T11:25:51.297Z,31.57
2019-02-05T11:28:21.399Z,43.17
2019-02-05T11:30:51.919Z,37.48
2019-02-05T11:33:22.687Z,50.52
2019-02-05T11:35:52.708Z,46.80
2019-02-05T11:38:22.832Z,42.00
2019-02-05T11:40:52.857Z,73.52
2019-02-05T11:43:22.982Z,65.17
2019-02-05T11:45:53.101Z,48.10
2019-02-05T11:48:23.516Z,56.90
2019-02-05T11:50:53.620Z,17.92
2019-02-05T11:53:23.635Z,17.90
2019-02-05T11:55:53.926Z,22.73
2019-02-05T11:58:23.950Z,28.67
2019-02-05T12:00:55.709Z,43.07
2019-02-05T12:03:25.730Z,36.40
2019-02-05T12:05:55.922Z,21.83
2019-02-05T12:08:26.235Z,20.87
2019-02-05T12:10:56.443Z,17.20
2019-02-05T12:13:26.486Z,19.53
2019-02-05T12:15:56.699Z,18.05
2019-02-05T12:18:26.939Z,18.25
2019-02-05T12:20:57.060Z,19.37
2019-02-05T12:23:27.295Z,16.53
2019-02-05T12:25:57.590Z,17.17
2019-02-05T12:28:27.613Z,18.53
2019-02-05T12:30:57.910Z,18.07
2019-02-05T12:33:28.507Z,20.57
2019-02-05T12:35:58.630Z,18.67
2019-02-05T12:38:28.725Z,23.70
2019-02-05T12:40:58.917Z,23.37
2019-02-05T12:43:28.961Z,22.60
2019-02-05T12:45:59.067Z,25.20
2019-02-05T12:48:29.358Z,22.80
2019-02-05T12:50:59.479Z,27.23
2019-02-05T12:53:29.680Z,24.17
2019-02-05T12:55:59.638Z,21.97
2019-02-05T12:58:29.744Z,22.43
2019-02-05T13:01:01.577Z,23.33
2019-02-05T13:03:31.961Z,25.43
2019-02-05T13:06:02.008Z,24.83
2019-02-05T13:08:33.884Z,29.70
2019-02-05T13:11:09.254Z,28.07
2019-02-05T13:13:40.932Z,26.80
2019-02-05T13:16:10.873Z,25.37
2019-02-05T13:18:41.056Z,24.20
2019-02-05T13:21:11.086Z,26.70
2019-02-05T13:23:41.178Z,23.57
2019-02-05T13:26:12.318Z,27.53
2019-02-05T13:28:43.319Z,22.17
2019-02-05T13:31:13.397Z,24.13
2019-02-05T13:33:44.411Z,25.40
2019-02-05T13:36:22.786Z,27.73
2019-02-05T13:38:53.191Z,24.20
2019-02-05T13:41:28.943Z,23.77
2019-02-05T13:43:57.736Z,27.53
2019-02-05T13:46:27.745Z,24.63
2019-02-05T13:48:57.840Z,22.97
2019-02-05T13:51:27.861Z,32.00
2019-02-05T13:53:58.154Z,29.47
2019-02-05T13:56:28.189Z,29.63
2019-02-05T13:59:01.763Z,28.43
2019-02-05T14:01:31.799Z,27.07
2019-02-05T14:04:01.821Z,29.73
2019-02-05T14:06:46.348Z,28.33
2019-02-05T14:09:18.086Z,30.40
2019-02-05T14:11:48.184Z,30.37
2019-02-05T14:14:18.205Z,31.63
2019-02-05T14:16:54.609Z,31.27
2019-02-05T14:19:27.730Z,31.13
2019-02-05T14:21:57.753Z,27.60
2019-02-05T14:24:29.284Z,30.00
2019-02-05T14:26:59.212Z,29.57
2019-02-05T14:29:29.228Z,32.63
2019-02-05T14:32:11.918Z,38.77
2019-02-05T14:34:51.279Z,32.17
2019-02-05T14:37:21.310Z,32.77
2019-02-05T14:39:53.259Z,32.20
2019-02-05T14:42:25.706Z,31.30
2019-02-05T14:45:09.825Z,32.47
2019-02-05T14:47:52.746Z,30.33
2019-02-05T14:53:29.402Z,33.77
2019-02-05T14:56:02.042Z,29.10
2019-02-05T14:58:32.225Z,28.93
2019-02-05T15:01:02.335Z,27.70
2019-02-05T15:03:32.349Z,33.50
2019-02-05T15:06:09.262Z,29.70
2019-02-05T15:08:39.502Z,30.43
2019-02-05T15:11:09.607Z,30.63
2019-02-05T15:13:39.641Z,26.13
2019-02-05T15:16:09.723Z,30.30
2019-02-05T15:19:05.205Z,30.80
2019-02-05T15:21:50.098Z,30.53
2019-02-05T15:27:21.075Z,30.53
2019-02-05T15:29:54.462Z,30.50
2019-02-05T15:32:42.663Z,30.57
2019-02-05T15:35:17.553Z,28.73
2019-02-05T15:37:48.756Z,31.07
2019-02-05T15:40:20.135Z,33.57
2019-02-05T15:42:53.161Z,31.00
2019-02-05T15:45:24.155Z,33.43
2019-02-05T15:47:54.240Z,31.47
2019-02-05T15:50:24.333Z,31.10
2019-02-05T15:52:54.440Z,30.33
2019-02-05T15:55:24.629Z,35.07
2019-02-05T15:57:54.696Z,35.37
2019-02-05T16:00:34.555Z,31.57
2019-02-05T16:03:21.899Z,37.97
2019-02-05T16:08:46.470Z,34.47
2019-02-05T16:11:19.774Z,31.33
2019-02-05T16:14:00.302Z,36.20
2019-02-05T16:16:44.898Z,41.10
2019-02-05T16:19:16.556Z,35.70
2019-02-05T16:21:46.591Z,34.03
2019-02-05T16:24:27.126Z,35.90
2019-02-05T16:27:18.602Z,34.87
2019-02-05T16:30:12.873Z,33.83
2019-02-05T16:33:11.781Z,32.33
2019-02-05T16:44:43.030Z,35.77
2019-02-05T16:47:14.299Z,37.33
2019-02-05T16:49:47.359Z,39.13
2019-02-05T16:52:17.456Z,37.03
2019-02-05T16:54:47.440Z,35.37
2019-02-05T16:57:17.525Z,35.43
2019-02-05T16:59:47.716Z,33.60
2019-02-05T17:02:28.382Z,32.67
2019-02-05T17:04:49.261Z,35.83
2019-02-05T17:07:19.281Z,37.73
2019-02-05T17:09:49.483Z,35.53
2019-02-05T17:12:19.574Z,38.43
2019-02-05T17:14:49.588Z,32.90
2019-02-05T17:17:21.466Z,34.70
2019-02-05T17:19:51.589Z,35.77
2019-02-05T17:22:21.573Z,31.47
2019-02-05T17:24:51.551Z,33.87
2019-02-05T17:27:21.471Z,40.87
2019-02-05T17:29:51.566Z,41.67
2019-02-05T17:32:21.788Z,44.77
2019-02-05T17:34:51.768Z,47.67
2019-02-05T17:37:21.690Z,42.87
2019-02-05T17:39:51.781Z,39.50
2019-02-05T17:42:21.907Z,42.00
2019-02-05T17:44:51.921Z,40.13
2019-02-05T17:47:22.013Z,35.70
2019-02-05T17:49:52.093Z,35.07
2019-02-05T17:52:22.013Z,35.80
2019-02-05T17:54:51.996Z,37.10
2019-02-05T17:57:22.016Z,36.77
2019-02-05T17:59:55.235Z,28.37
2019-02-05T18:02:25.333Z,28.63
2019-02-05T18:21:38.397Z,27.03
2019-02-05T18:24:08.643Z,20.50
2019-02-05T18:26:38.844Z,24.73
2019-02-05T18:57:20.599Z,19.03
2019-02-05T18:59:50.936Z,18.67
2019-02-05T19:02:25.747Z,18.50
2019-02-05T19:21:00.474Z,21.80
2019-02-05T19:36:38.497Z,22.73
2019-02-05T19:52:27.777Z,63.30
2019-02-05T19:55:03.639Z,76.87
2019-02-05T19:57:56.692Z,44.27
2019-02-05T20:03:41.244Z,40.00
2019-02-05T20:06:45.686Z,26.33
2019-02-05T20:58:22.306Z,27.17
2019-02-05T21:04:24.026Z,26.50
2019-02-05T21:10:03.731Z,20.57
2019-02-05T21:12:34.759Z,25.33
2019-02-05T21:15:09.227Z,23.53
2019-02-05T21:17:39.777Z,23.17
2019-02-05T21:20:38.787Z,23.70
2019-02-05T21:23:18.596Z,25.50
2019-02-05T21:26:11.021Z,23.27
2019-02-05T21:29:07.913Z,26.07
2019-02-05T21:37:48.715Z,28.83
2019-02-05T21:46:17.443Z,31.73
2019-02-05T21:48:50.402Z,32.13
2019-02-05T21:54:25.117Z,30.90
2019-02-05T21:56:55.473Z,31.47
2019-02-05T21:59:35.548Z,34.63
2019-02-05T22:02:07.062Z,32.50
2019-02-05T22:04:37.690Z,35.53
2019-02-05T22:07:07.948Z,35.37
2019-02-05T22:09:39.601Z,30.37
2019-02-05T22:12:10.243Z,30.40
2019-02-05T22:14:44.044Z,26.27
2019-02-05T22:17:47.813Z,27.83
2019-02-05T22:20:20.292Z,24.73
2019-02-05T22:22:50.623Z,21.27
2019-02-05T22:25:24.038Z,22.53
2019-02-05T22:27:54.278Z,26.17
2019-02-05T22:30:32.985Z,22.87
2019-02-05T22:33:03.159Z,27.47
2019-02-05T22:35:33.468Z,27.57
2019-02-05T22:38:03.767Z,35.70
2019-02-05T22:40:33.951Z,32.23
2019-02-05T22:43:05.147Z,27.77
2019-02-05T22:45:35.460Z,30.43
2019-02-05T22:48:07.233Z,29.97
2019-02-05T22:50:38.852Z,40.03
2019-02-05T22:53:10.699Z,32.37
2019-02-05T22:55:40.911Z,35.77
2019-02-05T22:58:11.409Z,37.17
2019-02-05T23:00:56.975Z,35.67
2019-02-05T23:03:29.922Z,32.40
2019-02-05T23:06:22.117Z,35.43
2019-02-05T23:08:55.094Z,34.27
2019-02-05T23:11:35.044Z,42.13
2019-02-05T23:14:05.946Z,38.97
2019-02-05T23:16:36.666Z,34.93
2019-02-05T23:19:07.806Z,38.40
2019-02-05T23:21:38.739Z,35.33
2019-02-05T23:24:09.048Z,35.80
2019-02-05T23:26:39.211Z,31.50
2019-02-05T23:29:09.425Z,29.60
2019-02-05T23:31:39.678Z,25.60
2019-02-05T23:34:09.889Z,24.90
2019-02-05T23:36:40.618Z,25.77
2019-02-05T23:39:11.941Z,26.77
2019-02-05T23:41:41.963Z,22.60
2019-02-05T23:44:11.935Z,31.27
2019-02-05T23:46:42.155Z,24.67
2019-02-05T23:49:12.292Z,27.47
2019-02-05T23:51:43.593Z,31.53
2019-02-05T23:54:13.793Z,26.77
2019-02-05T23:56:43.826Z,27.17
2019-02-05T23:59:14.761Z,20.50
